Pagrindinis puslapis
METAR-TAF:

METAR-TAF

Oro uostai :

Schleswig-Jagel, Vokietija

platuma: 54-28N, ilguma: 009-31E, Aukštis: 22 m

Dabartinis oras

Ataskaita buvo paskelbta 59 minutes, ne 02:20 UTC
Vėjas 24 kt iš Pietvakarių su gūsio iki 34 kt
Temperatūra 7°C
Drėgmė 76%
Slėgis 999 hPa
Matomumas: 8000 m

METAR: ETNS 170220Z AUTO 23024G34KT 8000 // ////// 07/03 Q0999 ///

Laikas: 04:19 (03:19 UTC)


TAF: trūkstamas

Orai ataskaitas ir orų prognozės (METAR, TAF).

turimą stotys yra geltonos ir raudonos taškus žemėlapyje.

Perkelti pele per norėdami pamatyti stoties vardą.

Tada spustelėkite, norėdami matyti oro stebėjimo ir prognozės.

Norėdami pakeisti žemėlapį: spustelėkite ant žalios mygtukų su juodo kryžiaus žemyn,; žalią mygtuką su brūkšneliu, jei norite nutolinti; arba žalių rodyklių gretimoms žemėlapius.


METAR-TAF: